createdAt,value
2019-03-05T00:00:13.151Z,3.57
2019-03-05T00:02:42.559Z,5.63
2019-03-05T00:05:12.212Z,2.67
2019-03-05T00:07:41.361Z,4.53
2019-03-05T00:10:11.618Z,5.13
2019-03-05T00:12:40.813Z,3.83
2019-03-05T00:15:11.309Z,3.93
2019-03-05T00:17:40.457Z,3.93
2019-03-05T00:20:11.201Z,4.50
2019-03-05T00:22:40.342Z,3.50
2019-03-05T00:25:11.982Z,4.57
2019-03-05T00:28:01.503Z,4.13
2019-03-05T00:31:08.978Z,6.73
2019-03-05T00:34:09.862Z,5.60
2019-03-05T00:36:42.556Z,8.27
2019-03-05T00:40:02.273Z,5.63
2019-03-05T00:43:00.715Z,6.40
2019-03-05T00:46:15.740Z,4.83
2019-03-05T00:49:14.764Z,4.73
2019-03-05T00:52:14.624Z,6.27
2019-03-05T00:55:21.023Z,3.10
2019-03-05T00:58:21.382Z,8.43
2019-03-05T01:01:20.274Z,8.77
2019-03-05T01:04:00.032Z,6.17
2019-03-05T01:06:29.288Z,7.93
2019-03-05T01:08:58.816Z,5.00
2019-03-05T01:11:28.270Z,6.43
2019-03-05T01:13:57.495Z,7.03
2019-03-05T01:16:30.318Z,8.50
2019-03-05T01:18:59.555Z,6.10
2019-03-05T01:21:28.951Z,3.57
2019-03-05T01:23:58.117Z,6.73
2019-03-05T01:26:27.399Z,9.00
2019-03-05T01:28:56.555Z,5.70
2019-03-05T01:31:50.771Z,7.87
2019-03-05T01:34:27.663Z,6.00
2019-03-05T01:36:59.336Z,6.27
2019-03-05T01:39:46.503Z,5.00
2019-03-05T01:42:15.755Z,10.60
2019-03-05T01:44:45.080Z,6.27
2019-03-05T01:47:14.359Z,8.10
2019-03-05T01:49:43.504Z,6.23
2019-03-05T01:52:12.671Z,8.00
2019-03-05T01:54:41.820Z,5.03
2019-03-05T01:57:11.106Z,7.23
2019-03-05T01:59:40.323Z,7.50
2019-03-05T02:02:09.581Z,8.60
2019-03-05T02:04:38.971Z,8.80
2019-03-05T02:07:08.409Z,6.03
2019-03-05T02:09:37.622Z,6.80
2019-03-05T02:12:06.881Z,6.37
2019-03-05T02:14:36.014Z,5.77
2019-03-05T02:17:05.370Z,7.30
2019-03-05T02:19:39.547Z,7.57
2019-03-05T02:22:38.040Z,8.40
2019-03-05T02:25:30.831Z,6.70
2019-03-05T02:28:26.919Z,6.07
2019-03-05T02:31:31.100Z,8.47
2019-03-05T02:34:31.825Z,11.50
2019-03-05T02:37:37.181Z,8.73
2019-03-05T02:40:31.830Z,6.97
2019-03-05T02:43:19.766Z,9.10
2019-03-05T02:46:13.557Z,9.50
2019-03-05T02:49:22.744Z,7.20
2019-03-05T02:52:44.756Z,8.67
2019-03-05T02:55:40.799Z,2.43
2019-03-05T02:58:08.498Z,6.10
2019-03-05T03:01:08.689Z,3.10
2019-03-05T03:03:41.645Z,3.67
2019-03-05T03:06:30.009Z,4.73
2019-03-05T03:09:38.825Z,2.90
2019-03-05T03:12:08.012Z,2.50
2019-03-05T03:14:37.188Z,3.47
2019-03-05T03:17:06.413Z,2.77
2019-03-05T03:19:36.039Z,1.97
2019-03-05T03:22:06.363Z,3.07
2019-03-05T03:24:35.622Z,3.07
2019-03-05T03:27:04.868Z,2.47
2019-03-05T03:29:34.164Z,2.50
2019-03-05T03:32:03.357Z,2.77
2019-03-05T03:34:32.596Z,2.07
2019-03-05T03:37:01.878Z,6.93
2019-03-05T03:39:31.024Z,2.33
2019-03-05T03:42:00.268Z,1.70
2019-03-05T03:44:29.514Z,6.27
2019-03-05T03:46:58.760Z,4.20
2019-03-05T03:49:27.907Z,4.43
2019-03-05T03:51:57.084Z,3.47
2019-03-05T03:54:26.237Z,5.43
2019-03-05T03:56:55.418Z,4.77
2019-03-05T03:59:24.707Z,2.90
2019-03-05T04:01:53.978Z,4.27
2019-03-05T04:04:23.192Z,2.30
2019-03-05T04:06:52.910Z,4.37
2019-03-05T04:09:22.134Z,4.07
2019-03-05T04:11:51.341Z,4.57
2019-03-05T04:14:20.652Z,4.10
2019-03-05T04:16:49.972Z,4.90
2019-03-05T04:19:23.792Z,7.03
2019-03-05T04:21:53.143Z,4.40
2019-03-05T04:24:22.319Z,4.30
2019-03-05T04:26:51.627Z,4.27
2019-03-05T04:29:20.852Z,3.37
2019-03-05T04:31:50.100Z,6.37
2019-03-05T04:34:19.256Z,4.73
2019-03-05T04:36:48.786Z,4.30
2019-03-05T04:39:18.015Z,4.33
2019-03-05T04:41:47.231Z,6.97
2019-03-05T04:44:22.263Z,3.87
2019-03-05T04:46:53.979Z,3.63
2019-03-05T04:49:40.307Z,5.40
2019-03-05T04:52:12.871Z,4.13
2019-03-05T04:54:42.135Z,4.90
2019-03-05T04:57:11.512Z,7.67
2019-03-05T04:59:40.867Z,2.83
2019-03-05T05:02:10.170Z,5.27
2019-03-05T05:04:39.486Z,4.83
2019-03-05T05:07:08.646Z,3.93
2019-03-05T05:09:38.150Z,2.83
2019-03-05T05:12:07.507Z,2.23
2019-03-05T05:14:36.755Z,3.77
2019-03-05T05:17:05.912Z,2.50
2019-03-05T05:19:35.168Z,2.47
2019-03-05T05:22:04.326Z,4.87
2019-03-05T05:24:33.536Z,3.87
2019-03-05T05:27:02.776Z,7.13
2019-03-05T05:29:31.952Z,5.47
2019-03-05T05:32:01.108Z,7.10
2019-03-05T05:34:30.440Z,3.97
2019-03-05T05:36:59.696Z,6.27
2019-03-05T05:40:05.096Z,4.17
2019-03-05T05:42:34.351Z,9.40
2019-03-05T05:45:03.632Z,5.27
2019-03-05T05:47:32.779Z,6.10
2019-03-05T05:50:02.133Z,6.83
2019-03-05T05:52:31.284Z,5.43
2019-03-05T05:55:00.534Z,4.93
2019-03-05T05:57:29.695Z,6.77
2019-03-05T05:59:58.862Z,8.40
2019-03-05T06:02:28.083Z,7.53
2019-03-05T06:04:57.335Z,5.90
2019-03-05T06:07:26.563Z,6.60
2019-03-05T06:09:55.923Z,4.93
2019-03-05T06:12:25.200Z,9.70
2019-03-05T06:14:54.381Z,7.27
2019-03-05T06:17:23.607Z,8.67
2019-03-05T06:19:52.944Z,6.97
2019-03-05T06:22:22.223Z,10.97
2019-03-05T06:24:51.486Z,7.03
2019-03-05T06:27:20.707Z,7.07
2019-03-05T06:29:49.912Z,8.10
2019-03-05T06:32:19.145Z,8.40
2019-03-05T06:34:48.368Z,7.23
2019-03-05T06:37:17.538Z,9.90
2019-03-05T06:39:46.797Z,7.97
2019-03-05T06:42:16.127Z,6.37
2019-03-05T06:44:45.276Z,8.37
2019-03-05T06:47:14.458Z,7.87
2019-03-05T06:49:43.696Z,7.43
2019-03-05T06:52:12.944Z,9.17
2019-03-05T06:54:42.163Z,7.63
2019-03-05T06:57:11.613Z,6.93
2019-03-05T06:59:40.763Z,8.53
2019-03-05T07:02:10.039Z,8.10
2019-03-05T07:04:39.282Z,9.10
2019-03-05T07:07:08.759Z,8.53
2019-03-05T07:09:59.436Z,10.80
2019-03-05T07:12:52.171Z,8.27
2019-03-05T07:16:06.534Z,8.93
2019-03-05T07:18:42.252Z,6.47
2019-03-05T07:22:07.920Z,6.00
2019-03-05T07:25:00.331Z,4.93
2019-03-05T07:27:34.786Z,9.47
2019-03-05T07:30:18.884Z,5.80
2019-03-05T07:32:48.339Z,8.13
2019-03-05T07:35:20.643Z,5.20
2019-03-05T07:37:49.959Z,5.90
2019-03-05T07:40:19.138Z,9.47
2019-03-05T07:42:48.388Z,9.90
2019-03-05T07:45:17.663Z,6.23
2019-03-05T07:47:46.853Z,7.50
2019-03-05T07:50:16.147Z,6.30
2019-03-05T07:52:45.330Z,4.17
2019-03-05T07:55:18.016Z,5.07
2019-03-05T07:57:47.248Z,5.07
2019-03-05T08:00:21.219Z,5.47
2019-03-05T08:02:50.481Z,6.67
2019-03-05T08:05:19.698Z,4.50
2019-03-05T08:07:48.904Z,5.87
2019-03-05T08:10:27.042Z,4.10
2019-03-05T08:13:23.203Z,4.60
2019-03-05T08:16:02.465Z,4.13
2019-03-05T08:18:27.859Z,11.40
2019-03-05T08:20:57.080Z,5.57
2019-03-05T08:23:26.332Z,6.63
2019-03-05T08:25:55.504Z,4.83
2019-03-05T08:28:24.767Z,7.73
2019-03-05T08:30:54.055Z,3.70
2019-03-05T08:33:23.387Z,6.13
2019-03-05T08:35:52.660Z,5.87
2019-03-05T08:38:21.984Z,3.93
2019-03-05T08:40:51.205Z,5.33
2019-03-05T08:43:20.393Z,4.70
2019-03-05T08:45:49.620Z,8.33
2019-03-05T08:48:18.767Z,5.03
2019-03-05T08:50:48.007Z,8.17
2019-03-05T08:53:17.276Z,6.40
2019-03-05T08:55:46.536Z,6.80
2019-03-05T08:58:15.691Z,7.40
2019-03-05T09:00:44.868Z,6.10
2019-03-05T09:03:14.098Z,6.20
2019-03-05T09:05:43.448Z,6.30
2019-03-05T09:08:12.624Z,6.43
2019-03-05T09:10:41.807Z,6.17
2019-03-05T09:13:10.972Z,4.20
2019-03-05T09:15:41.343Z,5.17
2019-03-05T09:18:10.503Z,3.33
2019-03-05T09:20:39.827Z,4.60
2019-03-05T09:23:08.979Z,7.07
2019-03-05T09:25:38.196Z,4.67
2019-03-05T09:28:07.552Z,3.83
2019-03-05T09:30:36.960Z,7.07
2019-03-05T09:33:06.199Z,4.53
2019-03-05T09:35:35.465Z,2.93
2019-03-05T09:38:04.783Z,2.93
2019-03-05T09:40:34.135Z,4.37
2019-03-05T09:43:03.299Z,6.67
2019-03-05T09:45:32.635Z,4.77
2019-03-05T09:48:01.934Z,5.50
2019-03-05T09:50:32.317Z,2.83
2019-03-05T09:53:02.156Z,6.80
2019-03-05T09:55:34.159Z,3.63
2019-03-05T09:58:07.993Z,4.30
2019-03-05T10:00:34.689Z,6.13
2019-03-05T10:03:04.623Z,3.63
2019-03-05T10:05:33.827Z,5.80
2019-03-05T10:08:03.039Z,4.67
2019-03-05T10:10:32.431Z,5.40
2019-03-05T10:13:04.393Z,3.87
2019-03-05T10:15:33.063Z,4.43
2019-03-05T10:18:12.296Z,4.63
2019-03-05T10:20:33.395Z,3.07
2019-03-05T10:23:02.659Z,3.47
2019-03-05T10:25:31.844Z,7.67
2019-03-05T10:28:01.019Z,2.27
2019-03-05T10:30:30.188Z,4.50
2019-03-05T10:33:01.207Z,3.93
2019-03-05T10:35:30.371Z,5.47
2019-03-05T10:38:00.521Z,4.03
2019-03-05T10:40:32.416Z,5.23
2019-03-05T10:43:08.491Z,2.23
2019-03-05T10:45:34.189Z,1.70
2019-03-05T10:48:03.668Z,1.97
2019-03-05T10:50:33.207Z,3.60
2019-03-05T10:53:03.217Z,1.50
2019-03-05T10:55:32.496Z,2.50
2019-03-05T10:58:01.751Z,2.23
2019-03-05T11:00:31.786Z,1.63
2019-03-05T11:03:01.035Z,2.47
2019-03-05T11:05:33.281Z,3.43
2019-03-05T11:08:02.651Z,1.40
2019-03-05T11:10:32.212Z,1.50
2019-03-05T11:13:02.237Z,1.53
2019-03-05T11:15:31.720Z,1.30
2019-03-05T11:18:01.027Z,1.80
2019-03-05T11:20:30.355Z,1.47
2019-03-05T11:22:59.627Z,1.70
2019-03-05T11:25:28.878Z,1.40
2019-03-05T11:27:58.049Z,1.30
2019-03-05T11:30:35.703Z,1.63
2019-03-05T11:32:59.172Z,1.50
2019-03-05T11:35:28.664Z,1.70
2019-03-05T11:37:57.818Z,2.40
2019-03-05T11:40:27.748Z,3.03
2019-03-05T11:42:56.976Z,2.53
2019-03-05T11:45:27.016Z,2.00
2019-03-05T11:47:56.853Z,2.10
2019-03-05T11:50:26.494Z,2.70
2019-03-05T11:52:55.715Z,9.23
2019-03-05T11:55:25.109Z,154.13
2019-03-05T11:57:54.340Z,77.60
2019-03-05T12:00:50.587Z,4.27
2019-03-05T12:03:19.815Z,13.80
2019-03-05T12:05:50.036Z,18.83
2019-03-05T12:08:19.383Z,2.53
2019-03-05T12:10:48.568Z,3.83
2019-03-05T12:13:17.815Z,2.20
2019-03-05T12:15:47.351Z,2.83
2019-03-05T12:18:16.647Z,2.33
2019-03-05T12:20:45.842Z,3.03
2019-03-05T12:23:15.354Z,2.67
2019-03-05T12:25:44.636Z,2.07
2019-03-05T12:28:13.939Z,1.70
2019-03-05T12:30:43.192Z,1.87
2019-03-05T12:33:12.447Z,2.13
2019-03-05T12:35:41.763Z,4.63
2019-03-05T12:38:10.945Z,5.70
2019-03-05T12:40:40.261Z,4.23
2019-03-05T12:43:09.410Z,2.70
2019-03-05T12:45:38.803Z,3.03
2019-03-05T12:48:08.097Z,4.20
2019-03-05T12:50:38.057Z,3.00
2019-03-05T12:53:07.547Z,3.07
2019-03-05T12:55:36.804Z,2.37
2019-03-05T12:58:06.051Z,3.70
2019-03-05T13:00:35.668Z,4.10
2019-03-05T13:03:05.055Z,2.90
2019-03-05T13:05:34.303Z,3.20
2019-03-05T13:08:03.842Z,3.50
2019-03-05T13:10:35.920Z,3.27
2019-03-05T13:13:04.109Z,6.37
2019-03-05T13:15:33.443Z,4.40
2019-03-05T13:18:02.689Z,5.97
2019-03-05T13:20:31.943Z,4.40
2019-03-05T13:23:05.024Z,5.23
2019-03-05T13:25:32.311Z,8.10
2019-03-05T13:28:02.446Z,9.87
2019-03-05T13:30:32.390Z,6.50
2019-03-05T13:33:01.801Z,9.07
2019-03-05T13:35:32.238Z,6.90
2019-03-05T13:38:03.370Z,5.90
2019-03-05T13:40:34.171Z,5.77
2019-03-05T13:43:03.842Z,6.90
2019-03-05T13:45:33.070Z,5.40
2019-03-05T13:48:31.304Z,4.20
2019-03-05T13:51:37.794Z,5.00
2019-03-05T13:54:43.995Z,4.77
2019-03-05T13:57:51.462Z,3.63
2019-03-05T14:00:20.608Z,4.27
2019-03-05T14:03:29.207Z,3.70
2019-03-05T14:06:48.347Z,12.37
2019-03-05T14:09:20.023Z,27.37
2019-03-05T14:11:51.172Z,10.30
2019-03-05T14:14:25.508Z,46.83
2019-03-05T14:17:10.867Z,42.70
2019-03-05T14:19:40.120Z,82.67
2019-03-05T14:22:09.370Z,101.60
2019-03-05T14:24:38.610Z,61.40
2019-03-05T14:27:07.895Z,21.77
2019-03-05T14:29:37.071Z,83.97
2019-03-05T14:32:06.684Z,95.43
2019-03-05T14:34:37.621Z,44.37
2019-03-05T14:37:07.071Z,50.67
2019-03-05T14:39:36.938Z,32.27
2019-03-05T14:42:11.510Z,15.10
2019-03-05T14:44:42.472Z,11.63
2019-03-05T14:47:11.760Z,18.07
2019-03-05T14:49:41.103Z,28.27
2019-03-05T14:52:10.358Z,88.73
2019-03-05T14:54:39.571Z,88.30
2019-03-05T14:57:08.823Z,10.93
2019-03-05T14:59:38.136Z,31.07
2019-03-05T15:02:07.857Z,13.40
2019-03-05T15:04:37.246Z,6.10
2019-03-05T15:07:06.453Z,5.70
2019-03-05T15:09:35.814Z,4.57
2019-03-05T15:12:05.145Z,6.70
2019-03-05T15:14:34.367Z,4.67
2019-03-05T15:17:03.630Z,8.90
2019-03-05T15:19:34.620Z,5.00
2019-03-05T15:22:03.711Z,6.00
2019-03-05T15:24:33.012Z,4.83
2019-03-05T15:27:02.302Z,5.10
2019-03-05T15:29:31.586Z,4.03
2019-03-05T15:32:00.811Z,3.77
2019-03-05T15:34:30.109Z,3.27
2019-03-05T15:36:59.348Z,2.50
2019-03-05T15:39:28.563Z,4.00
2019-03-05T15:41:57.809Z,3.33
2019-03-05T15:44:27.141Z,5.27
2019-03-05T15:46:56.480Z,3.67
2019-03-05T15:49:27.089Z,2.00
2019-03-05T15:51:56.311Z,2.87
2019-03-05T15:54:25.635Z,2.57
2019-03-05T15:56:54.939Z,3.07
2019-03-05T15:59:24.112Z,2.17
2019-03-05T16:01:53.353Z,9.60
2019-03-05T16:04:22.597Z,3.67
2019-03-05T16:06:52.043Z,11.20
2019-03-05T16:09:21.263Z,3.57
2019-03-05T16:11:50.576Z,3.77
2019-03-05T16:14:19.805Z,3.43
2019-03-05T16:16:51.750Z,2.53
2019-03-05T16:19:20.015Z,1.83
2019-03-05T16:21:49.353Z,2.97
2019-03-05T16:24:18.503Z,2.27
2019-03-05T16:26:47.964Z,3.67
2019-03-05T16:29:20.135Z,5.73
2019-03-05T16:32:05.792Z,6.57
2019-03-05T16:34:53.111Z,3.17
2019-03-05T16:37:47.304Z,3.10
2019-03-05T16:40:45.748Z,3.43
2019-03-05T16:43:19.778Z,4.63
2019-03-05T16:46:06.939Z,3.10
2019-03-05T16:49:02.721Z,3.67
2019-03-05T16:51:54.952Z,3.87
2019-03-05T16:54:43.132Z,4.00
2019-03-05T16:57:21.915Z,4.50
2019-03-05T17:00:25.463Z,3.17
2019-03-05T17:03:13.747Z,5.20
2019-03-05T17:06:02.017Z,2.67
2019-03-05T17:08:58.863Z,8.23
2019-03-05T17:12:05.147Z,6.33
2019-03-05T17:14:34.377Z,4.67
2019-03-05T17:17:03.630Z,5.47
2019-03-05T17:19:32.868Z,4.50
2019-03-05T17:22:02.301Z,4.50
2019-03-05T17:24:31.688Z,6.00
2019-03-05T17:27:00.985Z,7.27
2019-03-05T17:29:30.326Z,4.87
2019-03-05T17:31:59.700Z,5.87
2019-03-05T17:34:28.956Z,8.10
2019-03-05T17:36:58.179Z,7.93
2019-03-05T17:39:27.659Z,8.83
2019-03-05T17:41:56.955Z,8.27
2019-03-05T17:44:26.143Z,8.17
2019-03-05T17:46:55.465Z,8.57
2019-03-05T17:49:24.797Z,8.63
2019-03-05T17:51:54.010Z,9.97
2019-03-05T17:54:23.292Z,8.27
2019-03-05T17:56:52.900Z,9.13
2019-03-05T17:59:22.253Z,9.77
2019-03-05T18:01:51.556Z,10.60
2019-03-05T18:04:20.879Z,10.30
2019-03-05T18:06:50.187Z,9.77
2019-03-05T18:09:19.729Z,9.67
2019-03-05T18:11:48.978Z,9.27
2019-03-05T18:14:18.357Z,10.43
2019-03-05T18:16:47.707Z,10.37
2019-03-05T18:19:16.975Z,14.60
2019-03-05T18:21:46.287Z,15.83
2019-03-05T18:24:15.620Z,23.23
2019-03-05T18:26:44.803Z,19.40
2019-03-05T18:29:14.177Z,17.90
2019-03-05T18:31:43.485Z,11.63
2019-03-05T18:34:12.787Z,9.00
2019-03-05T18:36:42.079Z,11.77
2019-03-05T18:39:13.076Z,10.30
2019-03-05T18:41:42.477Z,8.73
2019-03-05T18:44:12.104Z,11.40
2019-03-05T18:46:41.360Z,8.97
2019-03-05T18:49:10.677Z,10.57
2019-03-05T18:51:40.015Z,12.63
2019-03-05T18:54:09.244Z,8.00
2019-03-05T18:56:38.877Z,8.57
2019-03-05T18:59:08.204Z,8.50
2019-03-05T19:01:37.458Z,6.60
2019-03-05T19:04:06.807Z,10.13
2019-03-05T19:06:36.067Z,9.00
2019-03-05T19:09:06.859Z,9.60
2019-03-05T19:11:36.123Z,10.60
2019-03-05T19:14:05.625Z,16.77
2019-03-05T19:16:34.968Z,12.93
2019-03-05T19:19:04.302Z,13.40
2019-03-05T19:21:33.499Z,13.00
2019-03-05T19:24:02.656Z,9.73
2019-03-05T19:26:31.939Z,8.30
2019-03-05T19:29:01.172Z,7.67
2019-03-05T19:31:30.799Z,8.50
2019-03-05T19:34:00.031Z,9.77
2019-03-05T19:36:29.319Z,13.30
2019-03-05T19:38:58.628Z,14.30
2019-03-05T19:41:27.963Z,11.67
2019-03-05T19:43:57.579Z,16.60
2019-03-05T19:46:26.875Z,19.47
2019-03-05T19:48:56.144Z,18.40
2019-03-05T19:51:25.752Z,13.80
2019-03-05T19:53:55.032Z,11.57
2019-03-05T19:56:24.432Z,11.83
2019-03-05T19:58:53.612Z,12.63
2019-03-05T20:01:28.835Z,9.93
2019-03-05T20:03:58.143Z,17.70
2019-03-05T20:06:27.629Z,22.07
2019-03-05T20:08:56.817Z,18.97
2019-03-05T20:11:26.048Z,22.57
2019-03-05T20:13:55.303Z,21.90
2019-03-05T20:16:24.614Z,19.87
2019-03-05T20:18:54.181Z,17.33
2019-03-05T20:21:23.488Z,15.30
2019-03-05T20:23:52.848Z,12.27
2019-03-05T20:26:22.104Z,12.43
2019-03-05T20:28:51.372Z,18.80
2019-03-05T20:31:20.789Z,30.03
2019-03-05T20:33:50.123Z,27.80
2019-03-05T20:36:19.355Z,28.37
2019-03-05T20:38:48.616Z,31.30
2019-03-05T20:41:17.853Z,33.53
2019-03-05T20:43:47.290Z,31.80
2019-03-05T20:46:27.671Z,29.73
2019-03-05T20:48:56.944Z,30.30
2019-03-05T20:51:26.375Z,37.40
2019-03-05T20:53:55.929Z,28.10
2019-03-05T20:56:25.439Z,12.80
2019-03-05T20:58:54.695Z,10.27
2019-03-05T21:01:24.003Z,17.00
2019-03-05T21:03:53.411Z,11.27
2019-03-05T21:06:22.815Z,15.67
2019-03-05T21:08:52.143Z,14.57
2019-03-05T21:11:21.463Z,12.87
2019-03-05T21:13:50.696Z,14.63
2019-03-05T21:16:20.059Z,9.50
2019-03-05T21:18:49.563Z,10.23
2019-03-05T21:21:18.751Z,12.73
2019-03-05T21:23:47.972Z,10.37
2019-03-05T21:26:17.260Z,13.23
2019-03-05T21:28:46.562Z,11.70
2019-03-05T21:31:15.739Z,10.50
2019-03-05T21:33:44.970Z,10.87
2019-03-05T21:36:14.227Z,11.17
2019-03-05T21:38:43.541Z,13.63
2019-03-05T21:41:12.812Z,12.70
2019-03-05T21:43:42.047Z,16.60
2019-03-05T21:46:14.794Z,12.67
2019-03-05T21:48:44.117Z,12.77
2019-03-05T21:51:13.452Z,14.37
2019-03-05T21:53:42.962Z,15.87
2019-03-05T21:56:12.151Z,14.90
2019-03-05T21:58:41.463Z,13.77
2019-03-05T22:01:10.718Z,16.40
2019-03-05T22:03:39.959Z,15.67
2019-03-05T22:06:09.241Z,16.10
2019-03-05T22:08:38.479Z,16.17
2019-03-05T22:11:07.736Z,16.40
2019-03-05T22:13:36.969Z,19.03
2019-03-05T22:16:06.448Z,15.93
2019-03-05T22:18:35.750Z,15.20
2019-03-05T22:21:05.047Z,14.67
2019-03-05T22:23:34.298Z,15.20
2019-03-05T22:26:03.574Z,12.70
2019-03-05T22:28:32.834Z,11.60
2019-03-05T22:31:02.143Z,13.50
2019-03-05T22:33:31.501Z,12.90
2019-03-05T22:36:00.814Z,9.53
2019-03-05T22:38:30.150Z,12.57
2019-03-05T22:40:59.449Z,9.60
2019-03-05T22:43:28.708Z,10.30
2019-03-05T22:45:58.019Z,15.23
2019-03-05T22:48:27.210Z,16.33
2019-03-05T22:50:56.647Z,10.37
2019-03-05T22:53:26.196Z,11.47
2019-03-05T22:55:55.487Z,12.67
2019-03-05T22:58:24.748Z,12.73
2019-03-05T23:01:13.772Z,10.37
2019-03-05T23:03:58.500Z,11.80
2019-03-05T23:06:28.471Z,9.30
2019-03-05T23:08:57.684Z,12.87
2019-03-05T23:11:27.296Z,12.97
2019-03-05T23:13:56.727Z,8.80
2019-03-05T23:16:26.055Z,11.20
2019-03-05T23:18:55.389Z,10.57
2019-03-05T23:21:24.697Z,9.30
2019-03-05T23:23:54.240Z,10.53
2019-03-05T23:26:23.568Z,11.07
2019-03-05T23:28:52.855Z,12.67
2019-03-05T23:31:22.154Z,9.63
2019-03-05T23:33:51.608Z,9.07
2019-03-05T23:36:20.835Z,9.27
2019-03-05T23:38:50.097Z,11.03
2019-03-05T23:41:19.365Z,13.13
2019-03-05T23:43:48.659Z,10.00
2019-03-05T23:46:17.815Z,11.80
2019-03-05T23:48:47.867Z,12.50
2019-03-05T23:51:17.100Z,12.23
2019-03-05T23:53:46.410Z,10.77
2019-03-05T23:56:15.590Z,12.67
2019-03-05T23:58:44.862Z,14.33
